Chicago Midway International Airport

KMDW | MDW

Chicago , Illinois , United States

Sunday, January 19th, 2020 | 12:26

Weather

KMDW 191753Z 28013KT 10SM FEW023 M10/M16 A3030 RMK AO2 SLP284 4/001 T11001156 11100 21161 50009 $

Charts

30 Available

Gates

57 Available

Runways

5 Available

Events

No events for this airport


New event